sensor_id;sensor_type;location;lat;lon;timestamp;P1;durP1;ratioP1;P2;durP2;ratioP2
57047;SDS011;42934;54.294;18.598;2023-01-19T00:01:03;17.63;;;8.55;;
57047;SDS011;42934;54.294;18.598;2023-01-19T00:03:33;18.58;;;9.57;;
57047;SDS011;42934;54.294;18.598;2023-01-19T00:06:03;19.20;;;8.57;;
57047;SDS011;42934;54.294;18.598;2023-01-19T00:08:33;18.40;;;8.65;;
57047;SDS011;42934;54.294;18.598;2023-01-19T00:11:02;21.58;;;9.65;;
57047;SDS011;42934;54.294;18.598;2023-01-19T00:13:31;21.38;;;10.63;;
57047;SDS011;42934;54.294;18.598;2023-01-19T00:16:01;27.80;;;10.07;;
57047;SDS011;42934;54.294;18.598;2023-01-19T00:18:31;22.15;;;10.60;;
57047;SDS011;42934;54.294;18.598;2023-01-19T00:21:01;24.25;;;11.05;;
57047;SDS011;42934;54.294;18.598;2023-01-19T00:23:30;23.35;;;11.90;;
57047;SDS011;42934;54.294;18.598;2023-01-19T00:25:59;22.80;;;10.57;;
57047;SDS011;42934;54.294;18.598;2023-01-19T00:28:28;23.38;;;10.57;;
57047;SDS011;42934;54.294;18.598;2023-01-19T00:30:57;26.17;;;9.98;;
57047;SDS011;42934;54.294;18.598;2023-01-19T00:33:26;19.25;;;9.68;;
57047;SDS011;42934;54.294;18.598;2023-01-19T00:35:58;17.88;;;9.38;;
57047;SDS011;42934;54.294;18.598;2023-01-19T00:40:56;20.25;;;9.75;;
57047;SDS011;42934;54.294;18.598;2023-01-19T00:43:25;19.90;;;9.25;;
57047;SDS011;42934;54.294;18.598;2023-01-19T00:45:54;18.35;;;9.48;;
57047;SDS011;42934;54.294;18.598;2023-01-19T00:48:23;18.33;;;9.15;;
57047;SDS011;42934;54.294;18.598;2023-01-19T00:50:52;19.27;;;9.00;;
57047;SDS011;42934;54.294;18.598;2023-01-19T00:53:22;24.17;;;10.30;;
57047;SDS011;42934;54.294;18.598;2023-01-19T00:55:52;19.58;;;9.63;;
57047;SDS011;42934;54.294;18.598;2023-01-19T00:58:21;22.95;;;9.98;;
57047;SDS011;42934;54.294;18.598;2023-01-19T01:00:51;21.20;;;9.68;;
57047;SDS011;42934;54.294;18.598;2023-01-19T01:03:23;25.63;;;11.10;;
57047;SDS011;42934;54.294;18.598;2023-01-19T01:05:54;23.08;;;10.57;;
57047;SDS011;42934;54.294;18.598;2023-01-19T01:08:25;22.20;;;10.27;;
57047;SDS011;42934;54.294;18.598;2023-01-19T01:10:54;21.60;;;9.55;;
57047;SDS011;42934;54.294;18.598;2023-01-19T01:13:23;20.97;;;10.20;;
57047;SDS011;42934;54.294;18.598;2023-01-19T01:15:54;19.17;;;9.18;;
57047;SDS011;42934;54.294;18.598;2023-01-19T01:18:23;15.88;;;8.60;;
57047;SDS011;42934;54.294;18.598;2023-01-19T01:20:59;18.00;;;8.70;;
57047;SDS011;42934;54.294;18.598;2023-01-19T01:23:32;19.42;;;9.25;;
57047;SDS011;42934;54.294;18.598;2023-01-19T01:26:01;15.95;;;8.77;;
57047;SDS011;42934;54.294;18.598;2023-01-19T01:28:31;19.77;;;9.35;;
57047;SDS011;42934;54.294;18.598;2023-01-19T01:31:00;15.65;;;8.32;;
57047;SDS011;42934;54.294;18.598;2023-01-19T01:33:29;19.42;;;10.07;;
57047;SDS011;42934;54.294;18.598;2023-01-19T01:36:07;17.90;;;9.30;;
57047;SDS011;42934;54.294;18.598;2023-01-19T01:38:39;15.60;;;8.63;;
57047;SDS011;42934;54.294;18.598;2023-01-19T01:41:09;16.95;;;8.75;;
57047;SDS011;42934;54.294;18.598;2023-01-19T01:43:41;16.00;;;9.27;;
57047;SDS011;42934;54.294;18.598;2023-01-19T01:46:12;16.42;;;9.38;;
57047;SDS011;42934;54.294;18.598;2023-01-19T01:48:44;15.75;;;8.77;;
57047;SDS011;42934;54.294;18.598;2023-01-19T01:51:20;18.58;;;8.77;;
57047;SDS011;42934;54.294;18.598;2023-01-19T01:54:00;17.58;;;9.13;;
57047;SDS011;42934;54.294;18.598;2023-01-19T01:56:36;16.92;;;8.60;;
57047;SDS011;42934;54.294;18.598;2023-01-19T01:59:08;17.23;;;9.10;;
57047;SDS011;42934;54.294;18.598;2023-01-19T02:01:52;17.38;;;8.77;;
57047;SDS011;42934;54.294;18.598;2023-01-19T02:04:43;15.02;;;7.72;;
57047;SDS011;42934;54.294;18.598;2023-01-19T02:07:16;17.75;;;8.55;;
57047;SDS011;42934;54.294;18.598;2023-01-19T02:10:09;15.05;;;8.20;;
57047;SDS011;42934;54.294;18.598;2023-01-19T02:12:56;15.07;;;7.35;;
57047;SDS011;42934;54.294;18.598;2023-01-19T02:15:44;17.98;;;8.18;;
57047;SDS011;42934;54.294;18.598;2023-01-19T02:18:14;14.88;;;7.53;;
57047;SDS011;42934;54.294;18.598;2023-01-19T02:20:45;17.25;;;8.27;;
57047;SDS011;42934;54.294;18.598;2023-01-19T02:23:26;14.90;;;7.10;;
57047;SDS011;42934;54.294;18.598;2023-01-19T02:26:09;13.68;;;7.60;;
57047;SDS011;42934;54.294;18.598;2023-01-19T02:28:41;13.68;;;7.53;;
57047;SDS011;42934;54.294;18.598;2023-01-19T02:31:13;13.07;;;6.90;;
57047;SDS011;42934;54.294;18.598;2023-01-19T02:33:43;14.35;;;6.88;;
57047;SDS011;42934;54.294;18.598;2023-01-19T02:36:12;13.38;;;6.53;;
57047;SDS011;42934;54.294;18.598;2023-01-19T02:38:46;12.20;;;6.43;;
57047;SDS011;42934;54.294;18.598;2023-01-19T02:41:18;14.43;;;6.80;;
57047;SDS011;42934;54.294;18.598;2023-01-19T02:43:49;15.05;;;6.70;;
57047;SDS011;42934;54.294;18.598;2023-01-19T02:46:19;13.57;;;6.82;;
57047;SDS011;42934;54.294;18.598;2023-01-19T02:48:48;11.82;;;6.70;;
57047;SDS011;42934;54.294;18.598;2023-01-19T02:51:19;16.30;;;7.35;;
57047;SDS011;42934;54.294;18.598;2023-01-19T02:54:04;13.10;;;7.30;;
57047;SDS011;42934;54.294;18.598;2023-01-19T02:57:00;12.05;;;6.57;;
57047;SDS011;42934;54.294;18.598;2023-01-19T02:59:43;14.80;;;6.50;;
57047;SDS011;42934;54.294;18.598;2023-01-19T03:02:26;13.75;;;6.43;;
57047;SDS011;42934;54.294;18.598;2023-01-19T03:05:09;12.80;;;6.50;;
57047;SDS011;42934;54.294;18.598;2023-01-19T03:07:50;14.07;;;6.50;;
57047;SDS011;42934;54.294;18.598;2023-01-19T03:10:30;11.52;;;5.75;;
57047;SDS011;42934;54.294;18.598;2023-01-19T03:13:08;13.77;;;6.63;;
57047;SDS011;42934;54.294;18.598;2023-01-19T03:15:43;13.43;;;6.95;;
57047;SDS011;42934;54.294;18.598;2023-01-19T03:18:17;10.77;;;6.10;;
57047;SDS011;42934;54.294;18.598;2023-01-19T03:20:51;13.68;;;6.60;;
57047;SDS011;42934;54.294;18.598;2023-01-19T03:23:23;12.05;;;6.22;;
57047;SDS011;42934;54.294;18.598;2023-01-19T03:25:57;11.40;;;6.70;;
57047;SDS011;42934;54.294;18.598;2023-01-19T03:28:28;13.40;;;5.43;;
57047;SDS011;42934;54.294;18.598;2023-01-19T03:31:00;14.52;;;6.30;;
57047;SDS011;42934;54.294;18.598;2023-01-19T03:33:34;10.05;;;5.60;;
57047;SDS011;42934;54.294;18.598;2023-01-19T03:36:07;15.05;;;6.57;;
57047;SDS011;42934;54.294;18.598;2023-01-19T03:38:41;13.18;;;6.35;;
57047;SDS011;42934;54.294;18.598;2023-01-19T03:41:15;12.48;;;6.32;;
57047;SDS011;42934;54.294;18.598;2023-01-19T03:43:46;12.05;;;6.40;;
57047;SDS011;42934;54.294;18.598;2023-01-19T03:46:18;12.38;;;6.03;;
57047;SDS011;42934;54.294;18.598;2023-01-19T03:48:50;10.73;;;5.20;;
57047;SDS011;42934;54.294;18.598;2023-01-19T03:51:20;11.43;;;5.97;;
57047;SDS011;42934;54.294;18.598;2023-01-19T03:53:49;11.07;;;5.60;;
57047;SDS011;42934;54.294;18.598;2023-01-19T03:56:20;12.27;;;5.68;;
57047;SDS011;42934;54.294;18.598;2023-01-19T03:58:50;13.60;;;6.30;;
57047;SDS011;42934;54.294;18.598;2023-01-19T04:01:22;12.38;;;6.32;;
57047;SDS011;42934;54.294;18.598;2023-01-19T04:03:51;9.45;;;6.15;;
57047;SDS011;42934;54.294;18.598;2023-01-19T04:06:21;14.48;;;6.40;;
57047;SDS011;42934;54.294;18.598;2023-01-19T04:08:50;13.98;;;6.07;;
57047;SDS011;42934;54.294;18.598;2023-01-19T04:11:26;11.35;;;6.40;;
57047;SDS011;42934;54.294;18.598;2023-01-19T04:13:55;13.32;;;6.35;;
57047;SDS011;42934;54.294;18.598;2023-01-19T04:16:24;11.70;;;6.22;;
57047;SDS011;42934;54.294;18.598;2023-01-19T04:18:54;14.02;;;6.10;;
57047;SDS011;42934;54.294;18.598;2023-01-19T04:21:24;11.65;;;6.57;;
57047;SDS011;42934;54.294;18.598;2023-01-19T04:23:53;11.75;;;6.28;;
57047;SDS011;42934;54.294;18.598;2023-01-19T04:26:22;10.73;;;6.38;;
57047;SDS011;42934;54.294;18.598;2023-01-19T04:28:52;8.57;;;5.68;;
57047;SDS011;42934;54.294;18.598;2023-01-19T04:31:21;12.10;;;5.70;;
57047;SDS011;42934;54.294;18.598;2023-01-19T04:33:50;10.30;;;5.68;;
57047;SDS011;42934;54.294;18.598;2023-01-19T04:36:19;13.23;;;6.22;;
57047;SDS011;42934;54.294;18.598;2023-01-19T04:38:48;10.75;;;5.93;;
57047;SDS011;42934;54.294;18.598;2023-01-19T04:41:18;10.20;;;5.35;;
57047;SDS011;42934;54.294;18.598;2023-01-19T04:43:47;12.85;;;6.03;;
57047;SDS011;42934;54.294;18.598;2023-01-19T04:46:17;9.85;;;5.20;;
57047;SDS011;42934;54.294;18.598;2023-01-19T04:51:15;10.40;;;6.05;;
57047;SDS011;42934;54.294;18.598;2023-01-19T04:53:44;10.35;;;5.35;;
57047;SDS011;42934;54.294;18.598;2023-01-19T04:56:13;12.02;;;5.93;;
57047;SDS011;42934;54.294;18.598;2023-01-19T04:58:42;10.15;;;5.80;;
57047;SDS011;42934;54.294;18.598;2023-01-19T05:01:12;10.85;;;5.95;;
57047;SDS011;42934;54.294;18.598;2023-01-19T05:03:42;9.85;;;5.43;;
57047;SDS011;42934;54.294;18.598;2023-01-19T05:06:11;10.00;;;5.57;;
57047;SDS011;42934;54.294;18.598;2023-01-19T05:08:40;11.02;;;6.30;;
57047;SDS011;42934;54.294;18.598;2023-01-19T05:11:11;11.75;;;6.03;;
57047;SDS011;42934;54.294;18.598;2023-01-19T05:13:40;11.27;;;5.75;;
57047;SDS011;42934;54.294;18.598;2023-01-19T05:16:09;11.00;;;5.57;;
57047;SDS011;42934;54.294;18.598;2023-01-19T05:18:39;13.15;;;6.18;;
57047;SDS011;42934;54.294;18.598;2023-01-19T05:21:10;11.68;;;5.57;;
57047;SDS011;42934;54.294;18.598;2023-01-19T05:23:39;12.93;;;5.75;;
57047;SDS011;42934;54.294;18.598;2023-01-19T05:26:08;10.45;;;5.68;;
57047;SDS011;42934;54.294;18.598;2023-01-19T05:28:37;9.48;;;5.63;;
57047;SDS011;42934;54.294;18.598;2023-01-19T05:31:06;13.10;;;6.03;;
57047;SDS011;42934;54.294;18.598;2023-01-19T05:33:35;10.57;;;5.38;;
57047;SDS011;42934;54.294;18.598;2023-01-19T05:36:06;12.20;;;6.53;;
57047;SDS011;42934;54.294;18.598;2023-01-19T05:38:35;14.10;;;6.55;;
57047;SDS011;42934;54.294;18.598;2023-01-19T05:41:04;12.38;;;6.32;;
57047;SDS011;42934;54.294;18.598;2023-01-19T05:43:33;21.55;;;10.50;;
57047;SDS011;42934;54.294;18.598;2023-01-19T05:46:03;28.23;;;14.20;;
57047;SDS011;42934;54.294;18.598;2023-01-19T05:48:32;35.63;;;17.60;;
57047;SDS011;42934;54.294;18.598;2023-01-19T05:51:01;27.13;;;16.00;;
57047;SDS011;42934;54.294;18.598;2023-01-19T05:53:32;25.00;;;13.05;;
57047;SDS011;42934;54.294;18.598;2023-01-19T05:56:02;24.70;;;13.30;;
57047;SDS011;42934;54.294;18.598;2023-01-19T05:58:33;25.95;;;14.82;;
57047;SDS011;42934;54.294;18.598;2023-01-19T06:01:04;39.30;;;17.55;;
57047;SDS011;42934;54.294;18.598;2023-01-19T06:03:35;61.25;;;20.80;;
57047;SDS011;42934;54.294;18.598;2023-01-19T06:06:06;61.63;;;20.75;;
57047;SDS011;42934;54.294;18.598;2023-01-19T06:08:36;64.80;;;21.10;;
57047;SDS011;42934;54.294;18.598;2023-01-19T06:11:05;72.07;;;20.73;;
57047;SDS011;42934;54.294;18.598;2023-01-19T06:13:35;68.28;;;20.48;;
57047;SDS011;42934;54.294;18.598;2023-01-19T06:16:08;63.30;;;18.45;;
57047;SDS011;42934;54.294;18.598;2023-01-19T06:18:37;53.33;;;17.13;;
57047;SDS011;42934;54.294;18.598;2023-01-19T06:21:06;45.80;;;16.15;;
57047;SDS011;42934;54.294;18.598;2023-01-19T06:23:39;44.78;;;15.25;;
57047;SDS011;42934;54.294;18.598;2023-01-19T06:26:08;44.95;;;14.50;;
57047;SDS011;42934;54.294;18.598;2023-01-19T06:28:37;40.88;;;14.93;;
57047;SDS011;42934;54.294;18.598;2023-01-19T06:31:06;38.17;;;14.70;;
57047;SDS011;42934;54.294;18.598;2023-01-19T06:33:35;36.55;;;13.95;;
57047;SDS011;42934;54.294;18.598;2023-01-19T06:36:05;37.22;;;13.57;;
57047;SDS011;42934;54.294;18.598;2023-01-19T06:38:34;40.63;;;14.75;;
57047;SDS011;42934;54.294;18.598;2023-01-19T06:41:04;47.85;;;17.00;;
57047;SDS011;42934;54.294;18.598;2023-01-19T06:46:02;34.25;;;12.43;;
57047;SDS011;42934;54.294;18.598;2023-01-19T06:48:32;66.03;;;18.45;;
57047;SDS011;42934;54.294;18.598;2023-01-19T06:51:01;89.28;;;23.95;;
57047;SDS011;42934;54.294;18.598;2023-01-19T06:53:31;82.97;;;23.13;;
57047;SDS011;42934;54.294;18.598;2023-01-19T06:56:00;43.97;;;15.45;;
57047;SDS011;42934;54.294;18.598;2023-01-19T06:58:32;32.53;;;13.10;;
57047;SDS011;42934;54.294;18.598;2023-01-19T07:01:01;29.52;;;12.15;;
57047;SDS011;42934;54.294;18.598;2023-01-19T07:03:33;58.88;;;18.42;;
57047;SDS011;42934;54.294;18.598;2023-01-19T07:06:04;34.60;;;13.68;;
57047;SDS011;42934;54.294;18.598;2023-01-19T07:08:33;45.43;;;15.50;;
57047;SDS011;42934;54.294;18.598;2023-01-19T07:13:54;28.73;;;11.30;;
57047;SDS011;42934;54.294;18.598;2023-01-19T07:16:24;22.15;;;10.82;;
57047;SDS011;42934;54.294;18.598;2023-01-19T07:18:53;21.70;;;10.32;;
57047;SDS011;42934;54.294;18.598;2023-01-19T07:21:22;18.23;;;9.60;;
57047;SDS011;42934;54.294;18.598;2023-01-19T07:23:53;18.83;;;10.05;;
57047;SDS011;42934;54.294;18.598;2023-01-19T07:26:23;18.60;;;10.23;;
57047;SDS011;42934;54.294;18.598;2023-01-19T07:33:52;24.73;;;11.60;;
57047;SDS011;42934;54.294;18.598;2023-01-19T07:36:22;21.77;;;11.70;;
57047;SDS011;42934;54.294;18.598;2023-01-19T07:38:51;24.33;;;12.73;;
57047;SDS011;42934;54.294;18.598;2023-01-19T07:41:20;22.70;;;11.63;;
57047;SDS011;42934;54.294;18.598;2023-01-19T07:43:49;25.42;;;11.77;;
57047;SDS011;42934;54.294;18.598;2023-01-19T07:46:20;21.83;;;11.37;;
57047;SDS011;42934;54.294;18.598;2023-01-19T07:48:49;23.50;;;10.70;;
57047;SDS011;42934;54.294;18.598;2023-01-19T07:51:18;25.25;;;12.25;;
57047;SDS011;42934;54.294;18.598;2023-01-19T07:53:48;24.58;;;11.70;;
57047;SDS011;42934;54.294;18.598;2023-01-19T07:58:47;29.30;;;12.93;;
57047;SDS011;42934;54.294;18.598;2023-01-19T08:01:19;24.73;;;11.43;;
57047;SDS011;42934;54.294;18.598;2023-01-19T08:03:49;25.17;;;12.38;;
57047;SDS011;42934;54.294;18.598;2023-01-19T08:06:19;30.90;;;14.00;;
57047;SDS011;42934;54.294;18.598;2023-01-19T08:08:50;28.52;;;14.98;;
57047;SDS011;42934;54.294;18.598;2023-01-19T08:11:19;29.20;;;15.15;;
57047;SDS011;42934;54.294;18.598;2023-01-19T08:13:48;31.00;;;14.23;;
57047;SDS011;42934;54.294;18.598;2023-01-19T08:16:17;30.75;;;14.30;;
57047;SDS011;42934;54.294;18.598;2023-01-19T08:18:48;28.88;;;14.85;;
57047;SDS011;42934;54.294;18.598;2023-01-19T08:21:17;26.23;;;13.10;;
57047;SDS011;42934;54.294;18.598;2023-01-19T08:23:50;23.67;;;12.65;;
57047;SDS011;42934;54.294;18.598;2023-01-19T08:26:23;23.13;;;12.25;;
57047;SDS011;42934;54.294;18.598;2023-01-19T08:28:55;22.77;;;13.00;;
57047;SDS011;42934;54.294;18.598;2023-01-19T08:31:27;27.52;;;12.40;;
57047;SDS011;42934;54.294;18.598;2023-01-19T08:33:58;24.95;;;13.05;;
57047;SDS011;42934;54.294;18.598;2023-01-19T08:36:27;23.13;;;12.90;;
57047;SDS011;42934;54.294;18.598;2023-01-19T08:38:56;31.88;;;13.73;;
57047;SDS011;42934;54.294;18.598;2023-01-19T08:41:25;26.83;;;13.40;;
57047;SDS011;42934;54.294;18.598;2023-01-19T08:43:54;25.40;;;12.45;;
57047;SDS011;42934;54.294;18.598;2023-01-19T08:46:23;26.95;;;13.48;;
57047;SDS011;42934;54.294;18.598;2023-01-19T08:48:54;26.02;;;14.13;;
57047;SDS011;42934;54.294;18.598;2023-01-19T08:51:23;28.40;;;14.82;;
57047;SDS011;42934;54.294;18.598;2023-01-19T08:53:52;29.17;;;13.25;;
57047;SDS011;42934;54.294;18.598;2023-01-19T08:56:21;23.90;;;13.50;;
57047;SDS011;42934;54.294;18.598;2023-01-19T08:58:50;19.20;;;10.68;;
57047;SDS011;42934;54.294;18.598;2023-01-19T09:01:35;26.75;;;13.60;;
57047;SDS011;42934;54.294;18.598;2023-01-19T09:04:06;26.77;;;12.60;;
57047;SDS011;42934;54.294;18.598;2023-01-19T09:06:35;23.65;;;12.77;;
57047;SDS011;42934;54.294;18.598;2023-01-19T09:09:04;24.60;;;12.38;;
57047;SDS011;42934;54.294;18.598;2023-01-19T09:11:34;30.10;;;13.85;;
57047;SDS011;42934;54.294;18.598;2023-01-19T09:14:03;25.15;;;13.82;;
57047;SDS011;42934;54.294;18.598;2023-01-19T09:16:32;28.45;;;14.48;;
57047;SDS011;42934;54.294;18.598;2023-01-19T09:19:01;28.55;;;13.85;;
57047;SDS011;42934;54.294;18.598;2023-01-19T09:21:32;27.98;;;13.20;;
57047;SDS011;42934;54.294;18.598;2023-01-19T09:24:01;26.73;;;14.95;;
57047;SDS011;42934;54.294;18.598;2023-01-19T09:26:30;28.20;;;15.47;;
57047;SDS011;42934;54.294;18.598;2023-01-19T09:28:59;27.75;;;14.57;;
57047;SDS011;42934;54.294;18.598;2023-01-19T09:31:29;21.10;;;13.23;;
57047;SDS011;42934;54.294;18.598;2023-01-19T09:33:58;26.27;;;14.27;;
57047;SDS011;42934;54.294;18.598;2023-01-19T09:36:27;26.63;;;14.27;;
57047;SDS011;42934;54.294;18.598;2023-01-19T09:38:59;26.75;;;14.65;;
57047;SDS011;42934;54.294;18.598;2023-01-19T09:41:28;21.92;;;12.82;;
57047;SDS011;42934;54.294;18.598;2023-01-19T09:44:01;24.77;;;14.32;;
57047;SDS011;42934;54.294;18.598;2023-01-19T09:46:32;28.83;;;15.00;;
57047;SDS011;42934;54.294;18.598;2023-01-19T09:49:06;26.48;;;14.45;;
57047;SDS011;42934;54.294;18.598;2023-01-19T09:51:40;33.78;;;16.98;;
57047;SDS011;42934;54.294;18.598;2023-01-19T09:54:15;26.60;;;16.02;;
57047;SDS011;42934;54.294;18.598;2023-01-19T09:56:46;26.98;;;15.07;;
57047;SDS011;42934;54.294;18.598;2023-01-19T09:59:20;30.25;;;15.80;;
57047;SDS011;42934;54.294;18.598;2023-01-19T10:01:54;29.42;;;15.52;;
57047;SDS011;42934;54.294;18.598;2023-01-19T10:04:40;32.65;;;17.00;;
57047;SDS011;42934;54.294;18.598;2023-01-19T10:09:50;30.52;;;15.75;;
57047;SDS011;42934;54.294;18.598;2023-01-19T10:12:40;33.63;;;17.83;;
57047;SDS011;42934;54.294;18.598;2023-01-19T10:15:19;36.75;;;18.98;;
57047;SDS011;42934;54.294;18.598;2023-01-19T10:18:01;33.90;;;18.48;;
57047;SDS011;42934;54.294;18.598;2023-01-19T10:20:38;32.28;;;17.58;;
57047;SDS011;42934;54.294;18.598;2023-01-19T10:23:15;34.35;;;17.50;;
57047;SDS011;42934;54.294;18.598;2023-01-19T10:25:53;30.38;;;17.02;;
57047;SDS011;42934;54.294;18.598;2023-01-19T10:28:24;33.20;;;17.33;;
57047;SDS011;42934;54.294;18.598;2023-01-19T10:30:54;33.20;;;17.63;;
57047;SDS011;42934;54.294;18.598;2023-01-19T10:33:24;37.33;;;19.40;;
57047;SDS011;42934;54.294;18.598;2023-01-19T10:35:53;34.47;;;18.02;;
57047;SDS011;42934;54.294;18.598;2023-01-19T10:38:22;35.10;;;18.05;;
57047;SDS011;42934;54.294;18.598;2023-01-19T10:40:56;35.22;;;18.65;;
57047;SDS011;42934;54.294;18.598;2023-01-19T10:43:34;30.20;;;16.08;;
57047;SDS011;42934;54.294;18.598;2023-01-19T10:46:14;44.13;;;17.23;;
57047;SDS011;42934;54.294;18.598;2023-01-19T10:48:48;33.45;;;17.83;;
57047;SDS011;42934;54.294;18.598;2023-01-19T10:51:19;32.38;;;16.80;;
57047;SDS011;42934;54.294;18.598;2023-01-19T10:53:56;29.90;;;16.48;;
57047;SDS011;42934;54.294;18.598;2023-01-19T10:56:33;30.13;;;15.80;;
57047;SDS011;42934;54.294;18.598;2023-01-19T10:59:04;28.60;;;16.10;;
57047;SDS011;42934;54.294;18.598;2023-01-19T11:01:34;31.88;;;17.70;;
57047;SDS011;42934;54.294;18.598;2023-01-19T11:04:20;33.03;;;17.17;;
57047;SDS011;42934;54.294;18.598;2023-01-19T11:06:59;24.23;;;11.88;;
57047;SDS011;42934;54.294;18.598;2023-01-19T11:09:41;27.48;;;13.25;;
57047;SDS011;42934;54.294;18.598;2023-01-19T11:12:18;28.17;;;14.87;;
57047;SDS011;42934;54.294;18.598;2023-01-19T11:14:50;28.70;;;15.63;;
57047;SDS011;42934;54.294;18.598;2023-01-19T11:17:20;26.77;;;16.08;;
57047;SDS011;42934;54.294;18.598;2023-01-19T11:19:52;29.83;;;16.52;;
57047;SDS011;42934;54.294;18.598;2023-01-19T11:22:25;21.48;;;12.45;;
57047;SDS011;42934;54.294;18.598;2023-01-19T11:24:56;19.90;;;11.82;;
57047;SDS011;42934;54.294;18.598;2023-01-19T11:27:28;23.95;;;12.43;;
57047;SDS011;42934;54.294;18.598;2023-01-19T11:30:00;19.65;;;10.85;;
57047;SDS011;42934;54.294;18.598;2023-01-19T11:32:35;19.80;;;10.10;;
57047;SDS011;42934;54.294;18.598;2023-01-19T11:38:13;18.83;;;11.00;;
57047;SDS011;42934;54.294;18.598;2023-01-19T11:40:52;16.90;;;10.18;;
57047;SDS011;42934;54.294;18.598;2023-01-19T11:43:26;16.48;;;9.70;;
57047;SDS011;42934;54.294;18.598;2023-01-19T11:46:13;16.38;;;9.48;;
57047;SDS011;42934;54.294;18.598;2023-01-19T11:48:45;14.90;;;8.60;;
57047;SDS011;42934;54.294;18.598;2023-01-19T11:51:22;13.48;;;7.80;;
57047;SDS011;42934;54.294;18.598;2023-01-19T11:53:54;14.57;;;7.50;;
57047;SDS011;42934;54.294;18.598;2023-01-19T11:56:25;17.38;;;8.02;;
57047;SDS011;42934;54.294;18.598;2023-01-19T11:58:56;16.23;;;8.77;;
57047;SDS011;42934;54.294;18.598;2023-01-19T12:01:26;18.10;;;9.23;;
57047;SDS011;42934;54.294;18.598;2023-01-19T12:03:59;19.05;;;10.68;;
57047;SDS011;42934;54.294;18.598;2023-01-19T12:06:33;14.07;;;8.00;;
57047;SDS011;42934;54.294;18.598;2023-01-19T12:09:06;17.90;;;10.50;;
57047;SDS011;42934;54.294;18.598;2023-01-19T12:11:42;15.80;;;9.10;;
57047;SDS011;42934;54.294;18.598;2023-01-19T12:14:16;15.18;;;8.73;;
57047;SDS011;42934;54.294;18.598;2023-01-19T12:16:53;16.85;;;8.68;;
57047;SDS011;42934;54.294;18.598;2023-01-19T12:19:28;14.25;;;7.97;;
57047;SDS011;42934;54.294;18.598;2023-01-19T12:22:04;14.90;;;7.18;;
57047;SDS011;42934;54.294;18.598;2023-01-19T12:24:39;13.73;;;8.13;;
57047;SDS011;42934;54.294;18.598;2023-01-19T12:27:14;13.70;;;7.95;;
57047;SDS011;42934;54.294;18.598;2023-01-19T12:29:53;13.68;;;7.20;;
57047;SDS011;42934;54.294;18.598;2023-01-19T12:32:31;11.85;;;6.97;;
57047;SDS011;42934;54.294;18.598;2023-01-19T12:35:02;14.43;;;7.95;;
57047;SDS011;42934;54.294;18.598;2023-01-19T12:37:36;15.07;;;8.77;;
57047;SDS011;42934;54.294;18.598;2023-01-19T12:40:17;14.55;;;8.60;;
57047;SDS011;42934;54.294;18.598;2023-01-19T12:42:55;15.73;;;8.23;;
57047;SDS011;42934;54.294;18.598;2023-01-19T12:45:32;12.10;;;7.78;;
57047;SDS011;42934;54.294;18.598;2023-01-19T12:48:03;14.15;;;8.15;;
57047;SDS011;42934;54.294;18.598;2023-01-19T12:50:37;14.35;;;8.00;;
57047;SDS011;42934;54.294;18.598;2023-01-19T12:53:14;17.70;;;9.25;;
57047;SDS011;42934;54.294;18.598;2023-01-19T12:55:56;16.85;;;8.90;;
57047;SDS011;42934;54.294;18.598;2023-01-19T12:58:27;13.40;;;8.18;;
57047;SDS011;42934;54.294;18.598;2023-01-19T13:01:15;17.00;;;9.32;;
57047;SDS011;42934;54.294;18.598;2023-01-19T13:07:05;17.02;;;9.43;;
57047;SDS011;42934;54.294;18.598;2023-01-19T13:09:39;15.45;;;9.23;;
57047;SDS011;42934;54.294;18.598;2023-01-19T13:12:09;17.30;;;9.53;;
57047;SDS011;42934;54.294;18.598;2023-01-19T13:14:46;16.92;;;9.02;;
57047;SDS011;42934;54.294;18.598;2023-01-19T13:17:27;18.35;;;9.52;;
57047;SDS011;42934;54.294;18.598;2023-01-19T13:20:04;16.95;;;8.98;;
57047;SDS011;42934;54.294;18.598;2023-01-19T13:25:48;19.90;;;9.13;;
57047;SDS011;42934;54.294;18.598;2023-01-19T13:28:23;15.80;;;7.97;;
57047;SDS011;42934;54.294;18.598;2023-01-19T13:30:58;19.13;;;8.98;;
57047;SDS011;42934;54.294;18.598;2023-01-19T13:33:34;17.33;;;9.50;;
57047;SDS011;42934;54.294;18.598;2023-01-19T13:36:21;15.80;;;9.05;;
57047;SDS011;42934;54.294;18.598;2023-01-19T13:38:54;17.08;;;8.75;;
57047;SDS011;42934;54.294;18.598;2023-01-19T13:41:26;16.58;;;9.20;;
57047;SDS011;42934;54.294;18.598;2023-01-19T13:43:59;20.05;;;9.77;;
57047;SDS011;42934;54.294;18.598;2023-01-19T13:46:30;16.15;;;9.07;;
57047;SDS011;42934;54.294;18.598;2023-01-19T13:49:02;19.15;;;9.45;;
57047;SDS011;42934;54.294;18.598;2023-01-19T13:51:40;21.45;;;9.90;;
57047;SDS011;42934;54.294;18.598;2023-01-19T13:54:13;22.20;;;10.30;;
57047;SDS011;42934;54.294;18.598;2023-01-19T13:56:47;18.35;;;10.30;;
57047;SDS011;42934;54.294;18.598;2023-01-19T13:59:16;21.25;;;10.35;;
57047;SDS011;42934;54.294;18.598;2023-01-19T14:01:46;19.08;;;10.20;;
57047;SDS011;42934;54.294;18.598;2023-01-19T14:04:25;22.42;;;11.18;;
57047;SDS011;42934;54.294;18.598;2023-01-19T14:06:56;22.38;;;12.00;;
57047;SDS011;42934;54.294;18.598;2023-01-19T14:09:27;23.45;;;11.65;;
57047;SDS011;42934;54.294;18.598;2023-01-19T14:12:04;20.30;;;11.20;;
57047;SDS011;42934;54.294;18.598;2023-01-19T14:14:37;23.60;;;12.18;;
57047;SDS011;42934;54.294;18.598;2023-01-19T14:17:23;20.77;;;11.45;;
57047;SDS011;42934;54.294;18.598;2023-01-19T14:19:55;26.42;;;12.88;;
57047;SDS011;42934;54.294;18.598;2023-01-19T14:22:37;22.52;;;12.73;;
57047;SDS011;42934;54.294;18.598;2023-01-19T14:25:20;22.77;;;12.90;;
57047;SDS011;42934;54.294;18.598;2023-01-19T14:30:53;23.92;;;12.45;;
57047;SDS011;42934;54.294;18.598;2023-01-19T14:33:33;23.63;;;13.23;;
57047;SDS011;42934;54.294;18.598;2023-01-19T14:36:15;27.83;;;12.63;;
57047;SDS011;42934;54.294;18.598;2023-01-19T14:38:59;26.55;;;13.88;;
57047;SDS011;42934;54.294;18.598;2023-01-19T14:41:32;26.50;;;14.55;;
57047;SDS011;42934;54.294;18.598;2023-01-19T14:44:06;27.00;;;13.82;;
57047;SDS011;42934;54.294;18.598;2023-01-19T14:46:36;25.65;;;12.85;;
57047;SDS011;42934;54.294;18.598;2023-01-19T14:49:12;25.10;;;13.73;;
57047;SDS011;42934;54.294;18.598;2023-01-19T14:51:48;26.15;;;13.82;;
57047;SDS011;42934;54.294;18.598;2023-01-19T14:54:18;23.80;;;12.48;;
57047;SDS011;42934;54.294;18.598;2023-01-19T14:56:56;25.58;;;13.35;;
57047;SDS011;42934;54.294;18.598;2023-01-19T14:59:25;24.33;;;13.97;;
57047;SDS011;42934;54.294;18.598;2023-01-19T15:01:54;29.38;;;14.52;;
57047;SDS011;42934;54.294;18.598;2023-01-19T15:04:25;32.90;;;15.77;;
57047;SDS011;42934;54.294;18.598;2023-01-19T15:06:56;39.50;;;18.23;;
57047;SDS011;42934;54.294;18.598;2023-01-19T15:09:25;34.42;;;17.00;;
57047;SDS011;42934;54.294;18.598;2023-01-19T15:11:54;31.40;;;15.50;;
57047;SDS011;42934;54.294;18.598;2023-01-19T15:14:23;32.58;;;18.10;;
57047;SDS011;42934;54.294;18.598;2023-01-19T15:16:53;38.83;;;20.15;;
57047;SDS011;42934;54.294;18.598;2023-01-19T15:19:24;36.88;;;19.63;;